createdAt,value
2023-05-28T00:00:17.852Z,9.48
2023-05-28T00:02:46.649Z,9.42
2023-05-28T00:05:13.522Z,9.37
2023-05-28T00:07:43.025Z,9.33
2023-05-28T00:10:10.183Z,9.24
2023-05-28T00:12:37.119Z,9.23
2023-05-28T00:15:04.235Z,9.22
2023-05-28T00:17:31.107Z,9.31
2023-05-28T00:19:57.910Z,9.31
2023-05-28T00:22:26.273Z,9.26
2023-05-28T00:24:53.330Z,9.29
2023-05-28T00:27:19.940Z,9.23
2023-05-28T00:29:46.699Z,9.20
2023-05-28T00:32:13.779Z,9.13
2023-05-28T00:34:40.530Z,9.07
2023-05-28T00:37:07.987Z,8.96
2023-05-28T00:39:34.642Z,8.86
2023-05-28T00:42:03.227Z,8.90
2023-05-28T00:44:33.610Z,8.88
2023-05-28T00:47:01.024Z,8.83
2023-05-28T00:49:28.496Z,8.87
2023-05-28T00:51:57.195Z,8.91
2023-05-28T00:54:24.628Z,8.92
2023-05-28T00:56:53.697Z,8.97
2023-05-28T00:59:21.138Z,8.95
2023-05-28T01:01:48.912Z,8.94
2023-05-28T01:04:15.753Z,8.91
2023-05-28T01:06:44.464Z,8.93
2023-05-28T01:09:12.399Z,8.95
2023-05-28T01:11:42.167Z,8.92
2023-05-28T01:14:09.504Z,8.92
2023-05-28T01:16:36.568Z,8.91
2023-05-28T01:19:10.216Z,8.90
2023-05-28T01:21:42.632Z,8.88
2023-05-28T01:24:10.358Z,8.82
2023-05-28T01:26:37.600Z,8.73
2023-05-28T01:29:14.974Z,8.70
2023-05-28T01:31:42.138Z,8.70
2023-05-28T01:34:10.872Z,8.63
2023-05-28T01:36:44.522Z,8.56
2023-05-28T01:39:16.678Z,8.48
2023-05-28T01:41:47.353Z,8.41
2023-05-28T01:44:19.806Z,8.36
2023-05-28T01:46:47.693Z,8.41
2023-05-28T01:49:14.640Z,8.43
2023-05-28T01:51:41.788Z,8.45
2023-05-28T01:54:08.587Z,8.46
2023-05-28T01:56:35.380Z,8.46
2023-05-28T01:59:03.446Z,8.43
2023-05-28T02:01:32.132Z,8.41
2023-05-28T02:04:01.380Z,8.42
2023-05-28T02:06:31.002Z,8.41
2023-05-28T02:08:58.378Z,8.37
2023-05-28T02:11:26.547Z,8.34
2023-05-28T02:13:55.423Z,8.31
2023-05-28T02:16:23.633Z,8.33
2023-05-28T02:18:56.177Z,8.29
2023-05-28T02:21:24.428Z,8.28
2023-05-28T02:23:51.743Z,8.31
2023-05-28T02:26:19.107Z,8.29
2023-05-28T02:28:46.730Z,8.26
2023-05-28T02:31:14.789Z,8.26
2023-05-28T02:33:44.996Z,8.31
2023-05-28T02:36:15.110Z,8.27
2023-05-28T02:38:43.214Z,8.22
2023-05-28T02:41:12.930Z,8.22
2023-05-28T02:43:46.387Z,8.18
2023-05-28T02:46:13.211Z,8.21
2023-05-28T02:48:40.383Z,8.26
2023-05-28T02:51:08.613Z,8.32
2023-05-28T02:53:53.923Z,8.33
2023-05-28T02:56:22.250Z,8.35
2023-05-28T02:58:48.915Z,8.38
2023-05-28T03:01:15.806Z,8.39
2023-05-28T03:03:43.109Z,8.39
2023-05-28T03:06:09.808Z,8.36
2023-05-28T03:08:45.374Z,8.25
2023-05-28T03:11:12.565Z,8.18
2023-05-28T03:13:39.349Z,8.16
2023-05-28T03:16:07.666Z,8.18
2023-05-28T03:18:36.216Z,8.18
2023-05-28T03:21:03.936Z,8.18
2023-05-28T03:23:30.971Z,8.08
2023-05-28T03:26:08.352Z,8.04
2023-05-28T03:28:35.643Z,7.98
2023-05-28T03:31:21.603Z,7.96
2023-05-28T03:33:49.054Z,7.94
2023-05-28T03:36:15.680Z,7.98
2023-05-28T03:38:42.435Z,8.00
2023-05-28T03:41:09.101Z,7.99
2023-05-28T03:43:36.216Z,7.98
2023-05-28T03:46:03.279Z,7.95
2023-05-28T03:48:30.202Z,7.99
2023-05-28T03:50:58.100Z,8.02
2023-05-28T03:53:24.923Z,8.08
2023-05-28T03:55:53.035Z,8.13
2023-05-28T03:58:22.033Z,8.16
2023-05-28T04:00:48.726Z,8.18
2023-05-28T04:03:15.447Z,8.20
2023-05-28T04:05:44.499Z,8.23
2023-05-28T04:08:11.382Z,8.22
2023-05-28T04:10:38.109Z,8.26
2023-05-28T04:13:04.911Z,8.26
2023-05-28T04:15:32.378Z,8.30
2023-05-28T04:17:59.216Z,8.31
2023-05-28T04:20:26.120Z,8.34
2023-05-28T04:22:52.862Z,8.34
2023-05-28T04:25:20.044Z,8.41
2023-05-28T04:27:47.495Z,8.46
2023-05-28T04:30:14.373Z,8.50
2023-05-28T04:32:41.074Z,8.54
2023-05-28T04:35:12.868Z,8.63
2023-05-28T04:37:41.038Z,8.69
2023-05-28T04:40:08.594Z,8.78
2023-05-28T04:42:35.384Z,8.86
2023-05-28T04:45:02.045Z,8.96
2023-05-28T04:47:29.733Z,9.08
2023-05-28T04:49:58.528Z,9.18
2023-05-28T04:52:25.257Z,9.33
2023-05-28T04:54:52.311Z,9.48
2023-05-28T04:57:19.356Z,9.60
2023-05-28T04:59:47.029Z,9.75
2023-05-28T05:02:14.279Z,9.89
2023-05-28T05:04:41.043Z,10.03
2023-05-28T05:07:08.056Z,10.16
2023-05-28T05:09:34.905Z,10.31
2023-05-28T05:12:01.899Z,10.47
2023-05-28T05:14:28.598Z,10.66
2023-05-28T05:16:55.571Z,10.87
2023-05-28T05:19:22.183Z,11.13
2023-05-28T05:21:49.072Z,11.37
2023-05-28T05:24:16.503Z,11.58
2023-05-28T05:26:43.422Z,11.84
2023-05-28T05:29:10.340Z,12.03
2023-05-28T05:31:37.269Z,12.19
2023-05-28T05:34:06.359Z,12.47
2023-05-28T05:36:41.848Z,12.74
2023-05-28T05:39:28.180Z,12.77
2023-05-28T05:42:13.496Z,12.97
2023-05-28T05:44:47.313Z,12.61
2023-05-28T05:47:14.679Z,12.90
2023-05-28T05:49:41.643Z,13.31
2023-05-28T05:52:08.439Z,13.59
2023-05-28T05:54:37.447Z,13.48
2023-05-28T05:57:04.748Z,13.70
2023-05-28T05:59:31.743Z,14.05
2023-05-28T06:02:00.457Z,14.38
2023-05-28T06:04:33.265Z,14.55
2023-05-28T06:07:07.767Z,14.66
2023-05-28T06:09:57.960Z,14.86
2023-05-28T06:12:30.719Z,14.95
2023-05-28T06:14:58.184Z,15.15
2023-05-28T06:17:25.698Z,14.89
2023-05-28T06:19:53.534Z,15.10
2023-05-28T06:22:20.115Z,14.82
2023-05-28T06:24:47.822Z,14.89
2023-05-28T06:27:14.552Z,15.03
2023-05-28T06:29:42.413Z,15.28
2023-05-28T06:32:09.257Z,15.39
2023-05-28T06:34:36.021Z,15.22
2023-05-28T06:37:02.626Z,14.78
2023-05-28T06:39:29.453Z,15.16
2023-05-28T06:41:57.174Z,15.39
2023-05-28T06:44:37.282Z,16.01
2023-05-28T06:47:08.904Z,16.01
2023-05-28T06:49:36.388Z,15.79
2023-05-28T06:52:03.160Z,15.91
2023-05-28T06:54:30.577Z,16.14
2023-05-28T06:56:57.686Z,16.66
2023-05-28T06:59:30.753Z,16.58
2023-05-28T07:02:19.765Z,16.68
2023-05-28T07:04:57.573Z,16.56
2023-05-28T07:07:30.002Z,16.58
2023-05-28T07:09:56.655Z,16.72
2023-05-28T07:12:24.517Z,17.27
2023-05-28T07:14:55.182Z,17.39
2023-05-28T07:17:22.332Z,17.35
2023-05-28T07:19:50.679Z,17.46
2023-05-28T07:22:25.216Z,17.59
2023-05-28T07:24:51.971Z,18.30
2023-05-28T07:27:18.873Z,18.40
2023-05-28T07:29:45.634Z,18.26
2023-05-28T07:32:16.385Z,18.63
2023-05-28T07:34:44.980Z,18.81
2023-05-28T07:37:13.463Z,18.91
2023-05-28T07:39:41.571Z,18.85
2023-05-28T07:42:08.520Z,18.85
2023-05-28T07:44:39.505Z,18.61
2023-05-28T07:47:06.776Z,19.15
2023-05-28T07:49:53.652Z,19.06
2023-05-28T07:52:26.797Z,19.23
2023-05-28T07:54:53.733Z,19.58
2023-05-28T07:57:21.178Z,19.69
2023-05-28T07:59:48.675Z,19.13
2023-05-28T08:02:16.574Z,19.60
2023-05-28T08:04:43.529Z,19.98
2023-05-28T08:07:14.209Z,20.00
2023-05-28T08:09:42.586Z,20.18
2023-05-28T08:12:12.039Z,20.02
2023-05-28T08:14:39.579Z,20.06
2023-05-28T08:17:09.384Z,20.35
2023-05-28T08:22:41.897Z,19.92
2023-05-28T08:25:09.847Z,20.57
2023-05-28T08:27:37.943Z,20.94
2023-05-28T08:30:05.094Z,21.17
2023-05-28T08:32:35.524Z,21.16
2023-05-28T08:35:02.268Z,21.19
2023-05-28T08:37:29.324Z,21.56
2023-05-28T08:40:14.526Z,21.81
2023-05-28T08:42:41.735Z,21.67
2023-05-28T08:45:09.072Z,21.67
2023-05-28T08:47:39.487Z,21.57
2023-05-28T08:50:17.902Z,21.56
2023-05-28T08:53:00.960Z,21.56
2023-05-28T08:55:28.750Z,21.48
2023-05-28T08:58:08.259Z,21.31
2023-05-28T09:00:35.857Z,21.51
2023-05-28T09:03:21.349Z,21.60
2023-05-28T09:05:49.595Z,21.88
2023-05-28T09:08:18.284Z,21.90
2023-05-28T09:10:45.484Z,21.81
2023-05-28T09:13:12.277Z,21.66
2023-05-28T09:15:42.582Z,21.63
2023-05-28T09:18:10.805Z,21.82
2023-05-28T09:20:39.236Z,21.74
2023-05-28T09:23:07.716Z,21.81
2023-05-28T09:26:10.630Z,22.21
2023-05-28T09:28:52.737Z,22.42
2023-05-28T09:31:19.504Z,22.39
2023-05-28T09:33:46.855Z,22.30
2023-05-28T09:36:17.833Z,22.26
2023-05-28T09:38:45.203Z,22.47
2023-05-28T09:41:24.156Z,22.51
2023-05-28T09:43:59.092Z,22.83
2023-05-28T09:46:33.554Z,22.77
2023-05-28T09:49:01.396Z,22.95
2023-05-28T09:51:30.724Z,22.70
2023-05-28T09:54:04.427Z,22.86
2023-05-28T09:56:34.347Z,22.96
2023-05-28T09:59:03.840Z,23.09
2023-05-28T10:01:37.160Z,22.94
2023-05-28T10:04:12.682Z,22.76
2023-05-28T10:06:41.674Z,23.03
2023-05-28T10:09:14.107Z,23.28
2023-05-28T10:11:51.719Z,23.26
2023-05-28T10:14:18.682Z,22.98
2023-05-28T10:16:46.990Z,23.30
2023-05-28T10:19:14.389Z,23.42
2023-05-28T10:21:41.589Z,23.30
2023-05-28T10:24:09.671Z,23.30
2023-05-28T10:26:36.589Z,23.23
2023-05-28T10:29:08.283Z,23.44
2023-05-28T10:31:35.083Z,23.68
2023-05-28T10:34:01.850Z,23.50
2023-05-28T10:36:28.834Z,23.56
2023-05-28T10:38:55.624Z,23.53
2023-05-28T10:41:22.864Z,23.96
2023-05-28T10:43:50.908Z,23.88
2023-05-28T10:46:26.851Z,23.81
2023-05-28T10:49:12.716Z,23.72
2023-05-28T10:51:58.831Z,24.28
2023-05-28T10:54:48.680Z,24.52
2023-05-28T10:57:15.467Z,24.05
2023-05-28T10:59:48.049Z,24.38
2023-05-28T11:02:24.178Z,24.20
2023-05-28T11:05:02.382Z,24.20
2023-05-28T11:07:36.257Z,24.63
2023-05-28T11:10:08.744Z,25.31
2023-05-28T11:12:40.828Z,25.05
2023-05-28T11:15:09.553Z,24.81
2023-05-28T11:17:43.961Z,24.87
2023-05-28T11:20:28.805Z,25.11
2023-05-28T11:22:56.695Z,24.51
2023-05-28T11:25:26.452Z,24.64
2023-05-28T11:27:54.740Z,24.27
2023-05-28T11:30:22.382Z,24.92
2023-05-28T11:32:49.673Z,24.55
2023-05-28T11:35:17.287Z,24.60
2023-05-28T11:37:45.575Z,24.15
2023-05-28T11:40:14.990Z,24.74
2023-05-28T11:42:43.266Z,25.11
2023-05-28T11:45:12.580Z,25.17
2023-05-28T11:47:39.606Z,25.41
2023-05-28T11:50:13.541Z,24.72
2023-05-28T11:52:41.149Z,25.06
2023-05-28T11:55:08.443Z,25.36
2023-05-28T11:57:38.159Z,25.35
2023-05-28T12:00:13.428Z,25.28
2023-05-28T12:02:47.573Z,25.79
2023-05-28T12:05:16.049Z,25.38
2023-05-28T12:07:46.692Z,25.73
2023-05-28T12:10:15.446Z,26.23
2023-05-28T12:12:46.598Z,26.25
2023-05-28T12:15:13.957Z,26.59
2023-05-28T12:17:44.513Z,27.41
2023-05-28T12:20:18.100Z,28.16
2023-05-28T12:22:45.368Z,29.05
2023-05-28T12:25:12.601Z,28.85
2023-05-28T12:27:39.347Z,28.52
2023-05-28T12:30:07.157Z,28.65
2023-05-28T12:32:36.154Z,29.18
2023-05-28T12:35:03.681Z,29.85
2023-05-28T12:37:30.423Z,29.93
2023-05-28T12:39:57.371Z,30.40
2023-05-28T12:42:24.152Z,29.73
2023-05-28T12:44:51.032Z,29.56
2023-05-28T12:47:17.914Z,29.59
2023-05-28T12:49:44.578Z,29.22
2023-05-28T12:52:11.249Z,29.89
2023-05-28T12:54:38.003Z,29.63
2023-05-28T12:57:05.067Z,30.05
2023-05-28T12:59:31.912Z,30.30
2023-05-28T13:01:59.283Z,31.82
2023-05-28T13:04:26.242Z,32.38
2023-05-28T13:06:54.455Z,31.54
2023-05-28T13:09:21.438Z,30.98
2023-05-28T13:11:48.407Z,31.23
2023-05-28T13:14:15.071Z,30.14
2023-05-28T13:16:41.863Z,30.04
2023-05-28T13:19:08.852Z,30.49
2023-05-28T13:21:38.729Z,30.20
2023-05-28T13:24:07.355Z,31.48
2023-05-28T13:26:35.547Z,30.93
2023-05-28T13:29:05.618Z,30.80
2023-05-28T13:31:32.741Z,30.98
2023-05-28T13:34:01.337Z,30.47
2023-05-28T13:36:28.772Z,31.66
2023-05-28T13:38:57.079Z,31.01
2023-05-28T13:41:27.566Z,30.11
2023-05-28T13:43:55.800Z,30.89
2023-05-28T13:46:26.036Z,30.94
2023-05-28T13:48:52.725Z,31.42
2023-05-28T13:51:19.876Z,32.18
2023-05-28T13:53:47.558Z,31.56
2023-05-28T13:56:16.060Z,31.10
2023-05-28T13:58:42.895Z,31.34
2023-05-28T14:01:09.722Z,31.81
2023-05-28T14:03:36.518Z,30.75
2023-05-28T14:06:04.807Z,31.37
2023-05-28T14:08:31.958Z,31.08
2023-05-28T14:10:58.604Z,30.85
2023-05-28T14:13:31.624Z,30.20
2023-05-28T14:15:59.712Z,30.86
2023-05-28T14:18:26.399Z,31.44
2023-05-28T14:20:53.825Z,31.09
2023-05-28T14:23:20.738Z,31.43
2023-05-28T14:25:47.445Z,31.57
2023-05-28T14:28:14.137Z,32.10
2023-05-28T14:30:41.060Z,33.20
2023-05-28T14:33:07.796Z,32.40
2023-05-28T14:35:34.768Z,32.48
2023-05-28T14:38:01.386Z,32.36
2023-05-28T14:40:28.006Z,32.12
2023-05-28T14:42:54.653Z,31.91
2023-05-28T14:45:21.355Z,31.89
2023-05-28T14:47:47.993Z,32.49
2023-05-28T14:50:15.067Z,31.59
2023-05-28T14:52:42.584Z,30.82
2023-05-28T14:55:09.469Z,31.05
2023-05-28T14:57:37.708Z,32.34
2023-05-28T15:00:08.231Z,32.56
2023-05-28T15:02:35.622Z,32.62
2023-05-28T15:05:04.557Z,31.93
2023-05-28T15:07:34.387Z,31.11
2023-05-28T15:10:01.165Z,30.30
2023-05-28T15:12:28.094Z,29.61
2023-05-28T15:14:54.953Z,30.63
2023-05-28T15:17:22.197Z,31.59
2023-05-28T15:19:49.708Z,31.67
2023-05-28T15:22:23.218Z,30.86
2023-05-28T15:24:51.102Z,30.33
2023-05-28T15:27:17.819Z,30.26
2023-05-28T15:29:45.581Z,30.94
2023-05-28T15:32:13.127Z,32.26
2023-05-28T15:34:40.115Z,32.57
2023-05-28T15:37:07.342Z,31.80
2023-05-28T15:39:34.289Z,30.74
2023-05-28T15:42:05.957Z,31.56
2023-05-28T15:44:35.188Z,31.13
2023-05-28T15:47:02.431Z,30.54
2023-05-28T15:49:30.047Z,31.18
2023-05-28T15:52:00.454Z,31.50
2023-05-28T15:54:27.275Z,30.74
2023-05-28T15:56:54.379Z,30.07
2023-05-28T15:59:21.382Z,29.87
2023-05-28T16:01:51.859Z,29.72
2023-05-28T16:04:21.666Z,30.08
2023-05-28T16:06:48.815Z,29.88
2023-05-28T16:09:15.827Z,29.81
2023-05-28T16:11:48.034Z,29.18
2023-05-28T16:14:18.455Z,28.12
2023-05-28T16:16:51.701Z,28.90
2023-05-28T16:19:18.780Z,29.30
2023-05-28T16:21:45.822Z,28.65
2023-05-28T16:24:14.012Z,29.17
2023-05-28T16:26:41.157Z,28.36
2023-05-28T16:29:08.022Z,29.02
2023-05-28T16:31:37.565Z,28.46
2023-05-28T16:34:04.794Z,27.90
2023-05-28T16:36:34.075Z,28.40
2023-05-28T16:39:01.237Z,28.72
2023-05-28T16:41:28.315Z,28.13
2023-05-28T16:43:56.318Z,27.31
2023-05-28T16:46:24.558Z,27.11
2023-05-28T16:48:53.636Z,27.19
2023-05-28T16:51:20.850Z,27.14
2023-05-28T16:53:50.551Z,27.22
2023-05-28T16:56:19.629Z,27.60
2023-05-28T16:58:48.141Z,26.93
2023-05-28T17:01:19.730Z,26.86
2023-05-28T17:03:47.084Z,26.26
2023-05-28T17:06:14.019Z,24.95
2023-05-28T17:08:40.772Z,23.87
2023-05-28T17:11:07.370Z,22.74
2023-05-28T17:13:34.045Z,22.48
2023-05-28T17:16:00.831Z,21.90
2023-05-28T17:18:27.450Z,21.56
2023-05-28T17:20:54.225Z,21.20
2023-05-28T17:23:20.923Z,21.01
2023-05-28T17:25:47.683Z,20.81
2023-05-28T17:28:14.790Z,20.46
2023-05-28T17:30:41.512Z,20.44
2023-05-28T17:33:08.273Z,20.40
2023-05-28T17:35:35.123Z,20.34
2023-05-28T17:38:01.967Z,20.25
2023-05-28T17:40:28.721Z,20.04
2023-05-28T17:42:55.372Z,19.96
2023-05-28T17:45:22.333Z,19.81
2023-05-28T17:47:49.087Z,19.62
2023-05-28T17:50:15.990Z,19.55
2023-05-28T17:52:42.584Z,19.33
2023-05-28T17:55:10.012Z,19.21
2023-05-28T17:57:36.765Z,18.94
2023-05-28T18:00:09.610Z,18.78
2023-05-28T18:02:36.629Z,18.49
2023-05-28T18:05:03.638Z,18.33
2023-05-28T18:07:30.269Z,18.19
2023-05-28T18:09:58.144Z,18.02
2023-05-28T18:12:24.790Z,17.86
2023-05-28T18:14:51.557Z,17.77
2023-05-28T18:17:24.915Z,17.74
2023-05-28T18:19:52.947Z,17.56
2023-05-28T18:22:19.987Z,17.52
2023-05-28T18:24:46.892Z,17.40
2023-05-28T18:27:13.558Z,17.39
2023-05-28T18:29:40.887Z,17.36
2023-05-28T18:32:07.530Z,17.18
2023-05-28T18:34:35.109Z,17.11
2023-05-28T18:37:01.775Z,16.97
2023-05-28T18:39:29.110Z,16.78
2023-05-28T18:41:56.187Z,16.62
2023-05-28T18:44:22.958Z,16.50
2023-05-28T18:46:49.794Z,16.34
2023-05-28T18:49:16.617Z,16.19
2023-05-28T18:51:46.623Z,16.06
2023-05-28T18:54:13.838Z,15.92
2023-05-28T18:56:40.757Z,15.81
2023-05-28T18:59:07.569Z,15.65
2023-05-28T19:01:34.344Z,15.57
2023-05-28T19:04:01.257Z,15.46
2023-05-28T19:06:28.424Z,15.38
2023-05-28T19:08:55.109Z,15.26
2023-05-28T19:11:22.618Z,15.10
2023-05-28T19:13:49.389Z,15.02
2023-05-28T19:16:16.160Z,15.01
2023-05-28T19:18:42.986Z,14.86
2023-05-28T19:21:09.621Z,14.80
2023-05-28T19:23:36.190Z,14.71
2023-05-28T19:26:02.801Z,14.60
2023-05-28T19:28:29.557Z,14.59
2023-05-28T19:30:56.332Z,14.57
2023-05-28T19:33:23.146Z,14.49
2023-05-28T19:35:49.809Z,14.40
2023-05-28T19:38:16.422Z,14.31
2023-05-28T19:40:42.982Z,14.19
2023-05-28T19:43:10.506Z,14.14
2023-05-28T19:45:37.234Z,14.00
2023-05-28T19:48:04.582Z,13.83
2023-05-28T19:50:31.455Z,13.70
2023-05-28T19:52:58.336Z,13.53
2023-05-28T19:55:25.020Z,13.44
2023-05-28T19:57:52.123Z,13.44
2023-05-28T20:00:18.840Z,13.35
2023-05-28T20:02:45.746Z,13.32
2023-05-28T20:05:13.071Z,13.22
2023-05-28T20:07:41.591Z,13.17
2023-05-28T20:10:10.135Z,13.19
2023-05-28T20:12:37.084Z,13.23
2023-05-28T20:15:03.953Z,13.07
2023-05-28T20:17:31.104Z,12.96
2023-05-28T20:20:00.444Z,12.98
2023-05-28T20:22:27.494Z,12.88
2023-05-28T20:24:54.169Z,12.88
2023-05-28T20:27:20.927Z,12.88
2023-05-28T20:29:47.798Z,12.90
2023-05-28T20:32:14.569Z,12.82
2023-05-28T20:34:41.139Z,12.73
2023-05-28T20:37:09.566Z,12.75
2023-05-28T20:39:37.346Z,12.73
2023-05-28T20:42:05.171Z,12.56
2023-05-28T20:44:36.729Z,12.14
2023-05-28T20:47:05.677Z,12.01
2023-05-28T20:49:32.443Z,11.98
2023-05-28T20:51:59.252Z,11.82
2023-05-28T20:54:26.176Z,11.56
2023-05-28T20:56:55.393Z,11.47
2023-05-28T20:59:22.441Z,11.39
2023-05-28T21:01:49.185Z,11.35
2023-05-28T21:04:15.901Z,11.43
2023-05-28T21:06:42.742Z,11.50
2023-05-28T21:09:09.718Z,11.39
2023-05-28T21:11:36.447Z,11.29
2023-05-28T21:14:03.314Z,11.21
2023-05-28T21:16:30.021Z,11.23
2023-05-28T21:18:56.760Z,11.20
2023-05-28T21:21:25.112Z,11.18
2023-05-28T21:23:55.148Z,11.12
2023-05-28T21:26:22.010Z,11.15
2023-05-28T21:28:48.672Z,11.09
2023-05-28T21:31:16.174Z,10.94
2023-05-28T21:33:42.941Z,10.90
2023-05-28T21:36:09.515Z,10.84
2023-05-28T21:38:36.336Z,10.83
2023-05-28T21:41:03.260Z,10.82
2023-05-28T21:43:29.848Z,10.78
2023-05-28T21:45:56.633Z,10.74
2023-05-28T21:48:23.361Z,10.63
2023-05-28T21:50:50.613Z,10.66
2023-05-28T21:53:17.245Z,10.65
2023-05-28T21:55:43.953Z,10.64
2023-05-28T21:58:11.060Z,10.50
2023-05-28T22:00:38.018Z,10.30
2023-05-28T22:03:05.034Z,10.22
2023-05-28T22:05:31.736Z,10.30
2023-05-28T22:07:58.578Z,10.29
2023-05-28T22:10:25.266Z,10.15
2023-05-28T22:12:52.239Z,10.11
2023-05-28T22:15:19.754Z,10.10
2023-05-28T22:17:46.901Z,10.18
2023-05-28T22:20:14.434Z,10.21
2023-05-28T22:22:42.528Z,10.12
2023-05-28T22:25:11.388Z,10.14
2023-05-28T22:27:40.180Z,10.09
2023-05-28T22:30:07.866Z,10.07
2023-05-28T22:32:34.903Z,10.11
2023-05-28T22:35:02.228Z,10.19
2023-05-28T22:37:29.295Z,10.23
2023-05-28T22:39:56.105Z,10.07
2023-05-28T22:42:23.639Z,9.97
2023-05-28T22:44:50.471Z,9.96
2023-05-28T22:47:17.971Z,9.99
2023-05-28T22:49:44.905Z,9.92
2023-05-28T22:52:12.416Z,9.94
2023-05-28T22:54:40.223Z,9.81
2023-05-28T22:57:07.147Z,9.79
2023-05-28T22:59:34.193Z,9.66
2023-05-28T23:02:01.133Z,9.56
2023-05-28T23:04:28.761Z,9.56
2023-05-28T23:06:55.772Z,9.52
2023-05-28T23:09:22.690Z,9.51
2023-05-28T23:11:49.589Z,9.39
2023-05-28T23:14:16.268Z,9.34
2023-05-28T23:16:43.456Z,9.31
2023-05-28T23:19:10.882Z,9.27
2023-05-28T23:21:39.662Z,9.35
2023-05-28T23:24:06.817Z,9.36
2023-05-28T23:26:34.170Z,9.32
2023-05-28T23:29:00.957Z,9.25
2023-05-28T23:31:27.696Z,9.16
2023-05-28T23:33:54.510Z,9.11
2023-05-28T23:36:21.298Z,9.10
2023-05-28T23:38:48.024Z,9.17
2023-05-28T23:41:14.656Z,9.13
2023-05-28T23:43:41.400Z,9.14
2023-05-28T23:46:08.465Z,9.13
2023-05-28T23:48:35.684Z,9.12
2023-05-28T23:51:02.396Z,9.16
2023-05-28T23:53:29.062Z,9.18
2023-05-28T23:55:57.070Z,9.14
2023-05-28T23:58:23.808Z,9.12
